Time;durP1;ratioP1;P1;durP2;ratioP2;P2;SDS_P1;SDS_P2;PMS_P1;PMS_P2;Temp;Humidity;BMP_temperature;BMP_pressure;BME280_temperature;BME280_humidity;BME280_pressure;Samples;Min_cycle;Max_cycle;Signal;HPM_P1;HPM_P2
2022/09/21 00:01:23;;;;;;;6.43;4.63;;;6.10;99.90;;;;;;5120197;28;20405;-84
2022/09/21 00:03:57;;;;;;;5.77;4.40;;;6.10;99.90;;;;;;5119460;28;20213;-85
2022/09/21 00:06:25;;;;;;;8.33;4.90;;;6.20;99.90;;;;;;5120098;28;20157;-84
2022/09/21 00:08:51;;;;;;;9.53;4.73;;;6.20;99.90;;;;;;5119859;28;20177;-84
2022/09/21 00:11:26;;;;;;;7.53;5.13;;;6.10;99.90;;;;;;5118660;28;20171;-84
2022/09/21 00:13:58;;;;;;;5.53;4.27;;;6.20;99.90;;;;;;5118049;28;20215;-84
2022/09/21 00:16:24;;;;;;;6.03;4.33;;;6.00;99.90;;;;;;5119082;28;20171;-84
2022/09/21 00:18:50;;;;;;;7.40;4.93;;;6.00;99.90;;;;;;5118126;28;20175;-84
2022/09/21 00:21:18;;;;;;;6.13;4.47;;;5.90;99.90;;;;;;5120146;28;20190;-84
2022/09/21 00:23:44;;;;;;;7.13;4.60;;;5.80;99.90;;;;;;5118715;28;20433;-84
2022/09/21 00:26:14;;;;;;;7.07;4.67;;;5.80;99.90;;;;;;5118323;28;20785;-84
2022/09/21 00:28:40;;;;;;;10.57;4.50;;;5.90;99.90;;;;;;5119344;28;20868;-84
2022/09/21 00:31:11;;;;;;;5.80;4.40;;;5.80;99.90;;;;;;5118198;28;20418;-83
2022/09/21 00:33:37;;;;;;;6.63;5.57;;;5.80;99.90;;;;;;5120268;28;20187;-84
2022/09/21 00:36:05;;;;;;;7.80;5.67;;;5.80;99.90;;;;;;5118285;28;20421;-84
2022/09/21 00:38:31;;;;;;;5.83;4.87;;;5.80;99.90;;;;;;5120518;28;20405;-85
2022/09/21 00:40:57;;;;;;;6.73;5.27;;;5.70;99.90;;;;;;5118643;28;20414;-84
2022/09/21 00:43:23;;;;;;;6.40;4.60;;;5.70;99.90;;;;;;5118229;28;20632;-86
2022/09/21 00:45:52;;;;;;;8.73;5.10;;;5.70;99.90;;;;;;5119702;28;20476;-84
2022/09/21 00:48:18;;;;;;;8.07;5.50;;;5.70;99.90;;;;;;5117651;28;20684;-85
2022/09/21 00:50:50;;;;;;;7.93;4.97;;;5.60;99.90;;;;;;5119231;28;20402;-85
2022/09/21 05:45:17;;;;;;;8.53;5.23;;;3.20;99.90;;;;;;5135849;27;20273;-83
2022/09/21 05:47:57;;;;;;;11.17;7.00;;;3.30;99.90;;;;;;5116452;28;20981;-83
2022/09/21 07:06:03;;;;;;;7.33;5.00;;;5.90;99.90;;;;;;5135760;27;20273;-85
2022/09/21 07:08:29;;;;;;;6.67;4.40;;;5.90;99.90;;;;;;5116277;28;20266;-85
2022/09/21 07:10:59;;;;;;;6.93;5.20;;;6.00;99.90;;;;;;5136192;28;20439;-85
2022/09/21 07:13:26;;;;;;;5.27;4.70;;;6.10;99.90;;;;;;5124272;28;20617;-84
2022/09/21 07:15:52;;;;;;;8.53;4.70;;;6.20;99.90;;;;;;5134740;27;20408;-85
2022/09/21 07:18:17;;;;;;;6.50;5.27;;;6.30;99.90;;;;;;5135218;27;20206;-84
2022/09/21 07:20:43;;;;;;;8.47;4.93;;;6.40;99.90;;;;;;5135090;27;20711;-84
2022/09/21 07:23:16;;;;;;;7.07;4.87;;;6.50;99.90;;;;;;5133529;28;20202;-85
2022/09/21 07:25:43;;;;;;;6.57;4.40;;;6.70;99.90;;;;;;5134779;27;20649;-85
2022/09/21 07:28:10;;;;;;;9.30;5.20;;;6.80;99.90;;;;;;5134139;27;20163;-84
2022/09/21 07:30:37;;;;;;;9.23;4.70;;;6.90;99.90;;;;;;5134389;27;20739;-84
2022/09/21 07:33:03;;;;;;;6.73;4.73;;;7.00;99.90;;;;;;5132181;28;20196;-84
2022/09/21 07:35:29;;;;;;;9.57;5.67;;;7.10;99.90;;;;;;5133993;27;20179;-84
2022/09/21 07:38:00;;;;;;;12.33;5.20;;;7.30;99.90;;;;;;5132613;28;20179;-85
2022/09/21 07:40:25;;;;;;;5.63;4.03;;;7.50;99.90;;;;;;5132787;28;20576;-84
2022/09/21 07:42:51;;;;;;;7.03;4.00;;;7.80;99.90;;;;;;5134183;27;20195;-85
2022/09/21 07:45:17;;;;;;;6.80;4.23;;;8.00;99.90;;;;;;5132836;28;20203;-84
2022/09/21 07:47:43;;;;;;;8.63;4.60;;;8.40;99.90;;;;;;5134355;27;20326;-84
2022/09/21 07:50:09;;;;;;;8.63;3.90;;;8.80;99.90;;;;;;5135013;27;20172;-86
2022/09/21 07:52:34;;;;;;;5.10;3.83;;;9.10;99.90;;;;;;5132441;28;20174;-86
2022/09/21 07:55:00;;;;;;;6.87;3.63;;;9.30;99.90;;;;;;5132785;28;20622;-84
2022/09/21 08:00:11;;;;;;;6.10;3.97;;;10.00;99.90;;;;;;5135038;28;20280;-84
2022/09/21 08:02:37;;;;;;;4.77;3.50;;;10.40;99.90;;;;;;5132782;28;20222;-85
2022/09/21 08:05:03;;;;;;;3.50;2.87;;;10.80;99.90;;;;;;5133944;27;20675;-85
2022/09/21 08:07:29;;;;;;;4.47;2.90;;;11.20;99.90;;;;;;5134092;27;20178;-83
2022/09/21 08:09:55;;;;;;;3.57;3.20;;;11.40;99.90;;;;;;5133590;28;20175;-84
2022/09/21 08:12:21;;;;;;;3.87;2.73;;;11.60;99.90;;;;;;5132358;28;20177;-84
2022/09/21 08:14:47;;;;;;;6.77;2.70;;;11.90;99.90;;;;;;5133431;27;20166;-84
2022/09/21 08:17:13;;;;;;;6.77;2.87;;;12.10;99.90;;;;;;5118967;28;20199;-84
2022/09/21 08:19:39;;;;;;;4.17;2.87;;;12.40;99.90;;;;;;5119071;28;20194;-84
2022/09/21 08:22:05;;;;;;;5.10;2.90;;;12.60;99.90;;;;;;5118641;28;20628;-84
2022/09/21 08:24:31;;;;;;;4.73;2.70;;;12.80;99.90;;;;;;5116874;28;20332;-83
2022/09/21 08:26:58;;;;;;;5.83;2.80;;;13.00;99.90;;;;;;5118830;28;20172;-84
2022/09/21 08:29:24;;;;;;;5.17;2.33;;;13.10;99.90;;;;;;5121211;28;20175;-84
2022/09/21 08:31:52;;;;;;;4.97;2.40;;;13.20;99.90;;;;;;5120842;28;20200;-84
2022/09/21 08:34:18;;;;;;;5.10;2.10;;;13.30;99.90;;;;;;5120927;28;20675;-84
2022/09/21 08:36:45;;;;;;;2.37;1.77;;;13.50;99.90;;;;;;5121937;28;20199;-84
2022/09/21 08:39:11;;;;;;;3.87;1.80;;;13.80;99.90;;;;;;5120681;28;20183;-84
2022/09/21 08:41:51;;;;;;;5.20;2.00;;;14.20;99.90;;;;;;5121399;28;20275;-85
2022/09/21 08:44:18;;;;;;;3.63;1.70;;;14.40;99.90;;;;;;5121450;28;20254;-80
2022/09/21 08:46:59;;;;;;;2.67;1.67;;;14.80;99.90;;;;;;5131889;28;20186;-82
2022/09/21 08:49:27;;;;;;;5.07;2.00;;;15.30;99.90;;;;;;5128767;28;20221;-83
2022/09/21 08:52:04;;;;;;;2.27;1.50;;;15.60;99.90;;;;;;5132343;28;20286;-82
2022/09/21 08:55:08;;;;;;;2.47;1.90;;;15.90;99.90;;;;;;5120860;28;20203;-84
2022/09/21 08:57:34;;;;;;;2.87;1.37;;;16.30;99.90;;;;;;5077830;28;20177;-84
2022/09/21 09:00:00;;;;;;;4.97;2.07;;;16.60;99.90;;;;;;5108480;28;20190;-86
2022/09/21 09:02:44;;;;;;;3.57;2.23;;;16.80;99.90;;;;;;5119421;28;20181;-84
2022/09/21 09:05:13;;;;;;;3.20;2.13;;;16.70;99.90;;;;;;5120985;28;20259;-85
2022/09/21 09:08:07;;;;;;;4.17;2.00;;;16.60;99.90;;;;;;5121586;28;20171;-84
2022/09/21 09:10:38;;;;;;;2.10;1.77;;;16.40;99.90;;;;;;5122082;28;20163;-82
2022/09/21 09:13:38;;;;;;;2.50;2.13;;;16.30;99.90;;;;;;5118654;28;20286;-83
2022/09/21 09:16:33;;;;;;;3.67;2.47;;;16.20;99.90;;;;;;5117346;28;20227;-84
2022/09/21 09:19:23;;;;;;;4.57;2.03;;;16.50;99.90;;;;;;5117712;28;20178;-84
2022/09/21 09:21:49;;;;;;;4.17;1.87;;;16.70;99.90;;;;;;5119990;28;20179;-85
2022/09/21 09:24:40;;;;;;;3.33;1.73;;;16.70;99.90;;;;;;5118298;28;20677;-85
2022/09/21 09:27:37;;;;;;;3.20;1.90;;;16.90;99.90;;;;;;5118133;28;20163;-85
2022/09/21 09:30:27;;;;;;;4.03;1.90;;;17.20;99.90;;;;;;5118879;28;20191;-84
2022/09/21 09:33:07;;;;;;;2.80;1.50;;;17.60;99.90;;;;;;5117543;28;20203;-85
2022/09/21 09:35:39;;;;;;;6.43;1.93;;;17.80;99.90;;;;;;5119113;28;20166;-84
2022/09/21 09:38:28;;;;;;;3.83;1.77;;;18.00;99.90;;;;;;5118877;28;20204;-86
2022/09/21 09:41:29;;;;;;;2.83;1.53;;;18.20;99.90;;;;;;5119379;28;20240;-85
2022/09/21 09:44:16;;;;;;;3.83;1.47;;;18.30;99.90;;;;;;5097904;28;20199;-85
2022/09/21 09:46:44;;;;;;;2.97;1.60;;;18.40;99.90;;;;;;5118743;28;20163;-84
2022/09/21 09:49:16;;;;;;;3.73;1.43;;;18.40;99.90;;;;;;5117253;28;20171;-85
2022/09/21 09:51:42;;;;;;;2.50;1.50;;;18.40;99.90;;;;;;5118756;28;20186;-85
2022/09/21 09:54:13;;;;;;;2.30;1.43;;;18.50;99.90;;;;;;5116986;28;20198;-85
2022/09/21 09:56:40;;;;;;;5.33;1.40;;;18.50;99.90;;;;;;5117181;28;20164;-84
2022/09/21 09:59:30;;;;;;;2.40;1.50;;;18.60;99.90;;;;;;5116681;28;20173;-84
2022/09/21 10:02:06;;;;;;;2.93;1.40;;;18.70;99.90;;;;;;5118307;28;20165;-84
2022/09/21 10:04:33;;;;;;;3.27;1.90;;;18.70;99.90;;;;;;5116482;28;20216;-84
2022/09/21 10:06:59;;;;;;;2.07;1.60;;;19.00;99.90;;;;;;5121124;28;20168;-85
2022/09/21 10:09:25;;;;;;;2.50;1.63;;;19.30;99.90;;;;;;5118325;28;20598;-85
2022/09/21 10:11:54;;;;;;;2.47;1.60;;;19.30;99.90;;;;;;5118058;28;20168;-85
2022/09/21 10:14:24;;;;;;;1.20;1.10;;;19.20;99.90;;;;;;5118564;28;20215;-85
2022/09/21 10:16:51;;;;;;;2.07;1.23;;;19.00;99.90;;;;;;5118641;28;20179;-84
2022/09/21 10:19:22;;;;;;;2.67;1.27;;;19.10;99.90;;;;;;5116745;28;20233;-83
2022/09/21 10:21:54;;;;;;;2.10;1.33;;;19.50;99.90;;;;;;5117026;28;20252;-85
2022/09/21 10:24:33;;;;;;;1.70;0.80;;;19.80;99.90;;;;;;5117825;28;20200;-85
2022/09/21 10:27:05;;;;;;;1.40;1.10;;;19.90;99.90;;;;;;5117840;28;20209;-84
2022/09/21 10:29:51;;;;;;;3.40;1.13;;;20.20;99.90;;;;;;5118627;28;20180;-84
2022/09/21 10:32:25;;;;;;;1.13;0.80;;;20.70;99.90;;;;;;5117593;28;20678;-84
2022/09/21 10:35:06;;;;;;;1.10;0.90;;;20.80;99.90;;;;;;5116622;28;20267;-82
2022/09/21 10:37:40;;;;;;;2.13;0.90;;;20.80;99.90;;;;;;5117392;28;20172;-84
2022/09/21 10:40:26;;;;;;;2.43;1.17;;;20.70;99.90;;;;;;5116647;28;20193;-87
2022/09/21 10:42:54;;;;;;;2.97;1.17;;;20.70;99.90;;;;;;5116419;28;20288;-86
2022/09/21 10:45:24;;;;;;;2.90;1.30;;;20.70;99.90;;;;;;5116691;28;20740;-85
2022/09/21 10:48:15;;;;;;;2.40;1.20;;;20.60;99.90;;;;;;5118012;28;20170;-83
2022/09/21 10:50:43;;;;;;;1.50;0.87;;;20.80;99.90;;;;;;5118577;28;20158;-85
2022/09/21 10:53:09;;;;;;;2.57;1.20;;;20.80;99.90;;;;;;5118801;28;20187;-84
2022/09/21 10:55:41;;;;;;;1.77;1.10;;;20.90;99.90;;;;;;5117726;28;20179;-85
2022/09/21 10:58:12;;;;;;;2.90;0.87;;;21.00;99.90;;;;;;5119410;28;20217;-84
2022/09/21 11:00:43;;;;;;;2.23;0.90;;;21.10;99.90;;;;;;5117947;28;20178;-85
2022/09/21 11:03:47;;;;;;;1.47;1.03;;;21.40;99.90;;;;;;5120386;28;20200;-84
2022/09/21 11:06:13;;;;;;;0.90;0.70;;;21.70;99.80;;;;;;5120384;28;20160;-84
2022/09/21 11:08:55;;;;;;;1.37;0.73;;;21.10;99.90;;;;;;5119078;28;20273;-85
2022/09/21 11:11:26;;;;;;;1.43;0.80;;;21.30;99.90;;;;;;5121017;28;20593;-86
2022/09/21 11:14:03;;;;;;;3.90;1.03;;;21.80;99.90;;;;;;5121925;28;20196;-83
2022/09/21 11:16:59;;;;;;;1.10;0.87;;;22.30;99.90;;;;;;5119309;28;20169;-86
2022/09/21 11:19:53;;;;;;;2.00;1.07;;;22.40;99.90;;;;;;5118505;28;20191;-84
2022/09/21 11:22:42;;;;;;;2.57;1.00;;;22.50;98.40;;;;;;5111180;28;20182;-84
2022/09/21 11:25:35;;;;;;;5.27;1.10;;;22.50;95.80;;;;;;5120024;28;20707;-84
2022/09/21 11:28:25;;;;;;;3.63;0.80;;;22.50;95.90;;;;;;5117277;28;20260;-85
2022/09/21 11:31:08;;;;;;;2.27;1.00;;;22.60;98.00;;;;;;5119159;28;20172;-84
2022/09/21 11:33:37;;;;;;;1.47;0.70;;;22.90;96.00;;;;;;5119588;28;20199;-84
2022/09/21 11:36:30;;;;;;;2.00;0.90;;;23.00;93.90;;;;;;5117532;28;20215;-85
2022/09/21 11:39:13;;;;;;;1.13;0.80;;;22.90;93.40;;;;;;5119534;28;20618;-84
2022/09/21 11:41:53;;;;;;;1.03;0.60;;;22.80;92.60;;;;;;5119593;28;20190;-86
2022/09/21 11:44:57;;;;;;;0.90;0.73;;;23.10;95.90;;;;;;5117892;28;20213;-86
2022/09/21 11:47:49;;;;;;;1.07;0.90;;;23.40;96.30;;;;;;5113276;28;20283;-85
2022/09/21 11:50:30;;;;;;;3.77;0.90;;;23.60;94.20;;;;;;5118976;28;20203;-86
2022/09/21 11:52:58;;;;;;;0.63;0.60;;;23.90;94.20;;;;;;5122115;28;20191;-85
2022/09/21 11:55:31;;;;;;;1.20;0.60;;;23.80;93.30;;;;;;5123392;28;20195;-85
2022/09/21 11:57:57;;;;;;;0.80;0.70;;;23.60;91.50;;;;;;5121854;28;20172;-84
2022/09/21 12:00:26;;;;;;;1.90;0.80;;;23.50;88.30;;;;;;5124287;28;20176;-86
2022/09/21 12:02:58;;;;;;;3.37;0.93;;;23.40;92.00;;;;;;5122103;28;20286;-84
2022/09/21 12:05:37;;;;;;;0.90;0.60;;;23.30;90.00;;;;;;5122104;28;20198;-86
2022/09/21 12:08:09;;;;;;;2.33;0.90;;;23.20;91.70;;;;;;5121717;28;20360;-86
2022/09/21 12:11:12;;;;;;;1.30;0.60;;;22.80;93.30;;;;;;5122293;28;20175;-86
2022/09/21 12:13:57;;;;;;;2.27;0.63;;;22.70;89.30;;;;;;5121984;28;20202;-85
2022/09/21 12:16:42;;;;;;;0.70;0.60;;;22.10;90.30;;;;;;5123496;28;20163;-85
2022/09/21 12:19:15;;;;;;;2.30;0.60;;;22.00;92.70;;;;;;5121168;28;20173;-86
2022/09/21 12:21:46;;;;;;;0.87;0.70;;;22.30;92.20;;;;;;5122328;28;20166;-84
2022/09/21 12:24:30;;;;;;;1.63;0.83;;;22.80;91.80;;;;;;5122036;28;20198;-84
2022/09/21 12:27:01;;;;;;;1.20;0.80;;;23.00;88.50;;;;;;5122903;27;20527;-84
2022/09/21 12:29:49;;;;;;;6.73;1.00;;;23.00;92.90;;;;;;5122078;28;20629;-85
2022/09/21 12:32:38;;;;;;;1.43;0.77;;;23.20;90.10;;;;;;5121611;28;20178;-85
2022/09/21 12:35:12;;;;;;;1.37;0.93;;;23.20;89.90;;;;;;5122057;28;20298;-83
2022/09/21 12:37:40;;;;;;;3.63;0.70;;;23.30;89.10;;;;;;5122344;28;20175;-85
2022/09/21 12:40:14;;;;;;;4.10;0.93;;;23.60;90.90;;;;;;5122143;28;20233;-85
2022/09/21 12:42:48;;;;;;;2.40;0.70;;;23.60;92.20;;;;;;5122793;28;20525;-84
2022/09/21 12:45:34;;;;;;;1.50;0.70;;;23.40;87.60;;;;;;5123401;28;20171;-86
2022/09/21 12:48:00;;;;;;;1.27;0.80;;;23.40;86.10;;;;;;5120128;28;20222;-84
2022/09/21 12:50:38;;;;;;;1.20;0.70;;;23.60;87.40;;;;;;5121487;28;20179;-85
2022/09/21 12:53:05;;;;;;;3.37;0.80;;;23.60;84.50;;;;;;5123659;28;20265;-86
2022/09/21 12:55:54;;;;;;;1.20;0.70;;;23.50;87.70;;;;;;5122128;28;20207;-87
2022/09/21 12:58:32;;;;;;;1.00;0.70;;;23.50;88.60;;;;;;5123572;28;20172;-87
2022/09/21 13:01:01;;;;;;;58.60;4.40;;;23.50;80.80;;;;;;5121878;28;20258;-86
2022/09/21 13:03:36;;;;;;;4.43;0.70;;;23.50;88.10;;;;;;5123582;28;20196;-86
2022/09/21 13:06:24;;;;;;;1.23;0.70;;;23.50;81.10;;;;;;5126003;28;20548;-83
2022/09/21 13:08:50;;;;;;;1.27;0.70;;;23.40;91.10;;;;;;5123481;28;20180;-86
2022/09/21 13:11:20;;;;;;;0.50;0.50;;;23.70;82.00;;;;;;5125830;28;20187;-84
2022/09/21 13:14:02;;;;;;;1.23;0.60;;;23.60;82.60;;;;;;5124090;28;20731;-85
2022/09/21 13:16:31;;;;;;;1.13;0.50;;;23.60;81.80;;;;;;5125273;28;20171;-85
2022/09/21 13:19:02;;;;;;;2.27;0.77;;;23.40;83.40;;;;;;5126417;28;20231;-85
2022/09/21 13:21:30;;;;;;;1.47;0.80;;;23.40;86.40;;;;;;5125305;28;20194;-87
2022/09/21 13:23:56;;;;;;;0.83;0.77;;;23.20;83.70;;;;;;5125632;28;20247;-87
2022/09/21 13:26:49;;;;;;;2.33;0.60;;;23.20;80.20;;;;;;5125727;28;20184;-85
2022/09/21 13:29:18;;;;;;;5.47;0.70;;;23.30;84.00;;;;;;5125602;28;20232;-83
2022/09/21 13:31:59;;;;;;;1.27;0.70;;;23.50;82.30;;;;;;5126977;28;20265;-86
2022/09/21 13:34:34;;;;;;;1.73;1.00;;;23.70;80.20;;;;;;5126231;28;20204;-86
2022/09/21 13:37:15;;;;;;;1.43;0.80;;;23.80;83.20;;;;;;5123968;28;20178;-84
2022/09/21 13:39:50;;;;;;;1.60;0.70;;;24.00;78.40;;;;;;5122844;28;20176;-86
2022/09/21 13:42:34;;;;;;;2.83;0.87;;;23.80;76.80;;;;;;5121804;28;20171;-86
2022/09/21 13:45:21;;;;;;;1.00;0.60;;;23.80;75.40;;;;;;5122361;28;20186;-85
2022/09/21 13:47:54;;;;;;;1.57;0.70;;;24.00;80.00;;;;;;5091759;28;20273;-85
2022/09/21 13:50:36;;;;;;;1.13;0.63;;;24.40;73.50;;;;;;5123016;28;20183;-85
2022/09/21 13:53:38;;;;;;;3.73;0.80;;;24.50;74.00;;;;;;5122827;28;20663;-86
2022/09/21 13:56:15;;;;;;;1.37;0.80;;;24.60;70.60;;;;;;5114297;28;20226;-84
2022/09/21 13:58:45;;;;;;;1.27;0.70;;;24.40;72.50;;;;;;5137671;28;20166;-84
2022/09/21 14:01:21;;;;;;;0.90;0.70;;;24.40;73.40;;;;;;5135968;28;20158;-81
2022/09/21 14:03:53;;;;;;;1.40;0.80;;;24.60;71.50;;;;;;5137661;28;20187;-86
2022/09/21 14:06:21;;;;;;;1.03;0.80;;;24.30;66.70;;;;;;5120138;28;20235;-85
2022/09/21 14:09:00;;;;;;;1.57;0.70;;;24.20;72.30;;;;;;5120860;28;20167;-85
2022/09/21 14:11:36;;;;;;;0.73;0.70;;;24.10;72.00;;;;;;5122692;28;20250;-83
2022/09/21 14:14:10;;;;;;;1.50;0.70;;;24.10;70.90;;;;;;5122206;28;20656;-86
2022/09/21 14:16:44;;;;;;;1.67;0.70;;;23.80;67.80;;;;;;5120306;28;20553;-85
2022/09/21 14:19:16;;;;;;;0.67;0.57;;;23.60;72.40;;;;;;5120074;28;20156;-86
2022/09/21 14:22:03;;;;;;;2.17;0.63;;;23.80;68.70;;;;;;5120688;28;20180;-87
2022/09/21 14:24:42;;;;;;;2.30;0.80;;;23.90;68.90;;;;;;5118882;28;20195;-85
2022/09/21 14:27:26;;;;;;;1.13;0.80;;;24.00;67.40;;;;;;5118705;28;20179;-84
2022/09/21 14:29:58;;;;;;;2.93;0.80;;;23.70;69.30;;;;;;5119214;28;20698;-86
2022/09/21 14:32:27;;;;;;;1.07;0.67;;;23.80;71.60;;;;;;5119378;28;20544;-86
2022/09/21 14:35:00;;;;;;;2.00;0.77;;;23.90;68.50;;;;;;5119258;28;20706;-86
2022/09/21 14:37:38;;;;;;;1.37;0.70;;;23.70;67.40;;;;;;5119446;28;20163;-85
2022/09/21 14:40:16;;;;;;;1.43;0.80;;;23.40;69.20;;;;;;5119402;28;20162;-86
2022/09/21 14:42:43;;;;;;;0.80;0.60;;;23.30;69.80;;;;;;5119549;28;20220;-86
2022/09/21 14:45:17;;;;;;;0.83;0.70;;;23.30;67.60;;;;;;5120316;28;20174;-86
2022/09/21 14:48:04;;;;;;;1.40;0.43;;;23.30;66.30;;;;;;5119251;28;20220;-86
2022/09/21 14:50:46;;;;;;;2.80;0.80;;;23.00;65.70;;;;;;5117714;28;20649;-86
2022/09/21 14:53:37;;;;;;;0.90;0.80;;;22.70;66.10;;;;;;5118953;28;20195;-85
2022/09/21 14:56:21;;;;;;;1.50;0.80;;;22.30;66.40;;;;;;5117529;28;20612;-86
2022/09/21 14:59:06;;;;;;;1.87;0.80;;;22.00;70.50;;;;;;5118212;28;20148;-85
2022/09/21 15:01:34;;;;;;;1.90;0.77;;;21.60;67.40;;;;;;5119124;28;20155;-87
2022/09/21 15:04:29;;;;;;;2.43;0.83;;;21.10;69.60;;;;;;5118423;28;20706;-85
2022/09/21 15:13:18;;;;;;;2.13;0.90;;;19.20;70.20;;;;;;5119713;28;20739;-86
2022/09/21 15:16:08;;;;;;;2.40;0.90;;;18.50;72.40;;;;;;5118440;28;20211;-85
2022/09/21 15:18:40;;;;;;;1.90;0.80;;;17.60;75.60;;;;;;5120164;28;20159;-86
2022/09/21 15:21:29;;;;;;;2.23;0.97;;;16.70;79.30;;;;;;5119336;28;20174;-85
2022/09/21 15:23:55;;;;;;;1.63;0.90;;;15.90;81.90;;;;;;5121203;28;20194;-85
2022/09/21 15:26:31;;;;;;;2.37;0.97;;;15.50;85.30;;;;;;5121620;28;20202;-86
2022/09/21 15:29:03;;;;;;;1.93;0.70;;;15.20;85.60;;;;;;5125595;27;20217;-86
2022/09/21 15:31:40;;;;;;;1.87;0.70;;;14.90;85.20;;;;;;5122024;28;20540;-87
2022/09/21 15:34:08;;;;;;;1.47;0.90;;;14.60;88.40;;;;;;5123087;28;20187;-84
2022/09/21 15:36:38;;;;;;;1.30;0.90;;;14.40;89.20;;;;;;5124964;28;20179;-86
2022/09/21 15:39:04;;;;;;;1.67;0.77;;;14.20;88.00;;;;;;5124636;28;20225;-86
2022/09/21 15:41:44;;;;;;;1.33;0.77;;;14.10;87.80;;;;;;5126135;28;20170;-85
2022/09/21 15:44:16;;;;;;;1.53;0.83;;;13.90;89.50;;;;;;5124278;28;20245;-85
2022/09/21 15:46:46;;;;;;;0.90;0.63;;;13.80;89.40;;;;;;5125836;28;20633;-84
2022/09/21 15:49:14;;;;;;;2.73;1.00;;;13.70;89.50;;;;;;5124212;28;20201;-85
2022/09/21 15:51:44;;;;;;;1.33;0.90;;;13.60;90.00;;;;;;5125236;28;20178;-85
2022/09/21 15:54:20;;;;;;;1.07;0.80;;;13.50;91.20;;;;;;5123714;28;20196;-85
2022/09/21 15:56:46;;;;;;;1.43;0.63;;;13.50;90.40;;;;;;5124870;28;20156;-85
2022/09/21 15:59:19;;;;;;;1.83;0.77;;;13.40;91.10;;;;;;5125485;28;20204;-84
2022/09/21 16:01:48;;;;;;;1.53;0.90;;;13.40;91.40;;;;;;5125359;28;20182;-86
2022/09/21 16:04:25;;;;;;;1.80;0.70;;;13.30;91.40;;;;;;5124557;28;20211;-85
2022/09/21 16:07:03;;;;;;;1.63;0.83;;;13.30;91.70;;;;;;5123677;28;20189;-86
2022/09/21 16:09:39;;;;;;;2.23;0.70;;;13.20;92.10;;;;;;5124067;28;20181;-85
2022/09/21 16:12:38;;;;;;;4.10;1.00;;;13.10;92.10;;;;;;5124704;28;20167;-86
2022/09/21 16:15:37;;;;;;;3.63;0.80;;;13.00;92.50;;;;;;5091658;28;20268;-87
2022/09/21 16:18:05;;;;;;;1.00;0.73;;;12.90;92.50;;;;;;5102179;28;20198;-84
2022/09/21 16:20:42;;;;;;;1.97;0.70;;;12.90;93.10;;;;;;5126774;28;20163;-85
2022/09/21 16:23:17;;;;;;;1.17;0.80;;;12.80;92.30;;;;;;5125244;28;20265;-86
2022/09/21 16:25:51;;;;;;;1.67;0.80;;;12.70;92.90;;;;;;5123848;28;20252;-85
2022/09/21 16:28:17;;;;;;;0.83;0.67;;;12.60;93.40;;;;;;5123380;28;20254;-85
2022/09/21 16:30:43;;;;;;;2.37;1.30;;;12.60;94.20;;;;;;5123339;28;20242;-86
2022/09/21 16:33:39;;;;;;;0.90;0.70;;;12.50;93.60;;;;;;5123297;28;20191;-86
2022/09/21 16:36:28;;;;;;;3.60;0.90;;;12.40;94.30;;;;;;5122712;28;20277;-86
2022/09/21 16:38:54;;;;;;;1.43;1.00;;;12.30;94.90;;;;;;5113446;28;20175;-85
2022/09/21 16:41:21;;;;;;;3.47;1.03;;;12.20;94.90;;;;;;5123344;28;20173;-85
2022/09/21 16:43:49;;;;;;;2.80;0.97;;;12.10;95.20;;;;;;5124962;28;20267;-83
2022/09/21 16:46:15;;;;;;;0.93;0.87;;;12.10;95.90;;;;;;5122823;28;20199;-84
2022/09/21 16:48:41;;;;;;;2.67;1.10;;;12.00;95.80;;;;;;5124757;28;20632;-85
2022/09/21 16:51:12;;;;;;;1.53;1.07;;;12.00;97.20;;;;;;5123603;28;20227;-84
2022/09/21 16:53:41;;;;;;;1.67;1.20;;;11.90;97.20;;;;;;5124237;28;20227;-84
2022/09/21 16:56:14;;;;;;;3.87;1.00;;;11.90;97.90;;;;;;5124110;28;20290;-84
2022/09/21 16:58:42;;;;;;;1.50;1.10;;;11.80;97.90;;;;;;5125248;28;20159;-85
2022/09/21 17:01:18;;;;;;;2.97;1.17;;;11.80;99.60;;;;;;5123944;28;20174;-85
2022/09/21 17:03:46;;;;;;;3.23;1.20;;;11.80;99.20;;;;;;5122599;28;20199;-84
2022/09/21 17:06:21;;;;;;;1.10;0.90;;;11.70;99.00;;;;;;5122820;28;20191;-84
2022/09/21 17:08:48;;;;;;;1.30;0.90;;;11.70;99.90;;;;;;5124306;28;20159;-85
2022/09/21 17:11:21;;;;;;;3.17;1.40;;;11.70;99.90;;;;;;5122996;28;20179;-84
2022/09/21 17:13:48;;;;;;;2.80;1.13;;;11.60;98.70;;;;;;5123942;28;20662;-86
2022/09/21 17:16:16;;;;;;;2.67;1.90;;;11.50;99.90;;;;;;5124866;28;20259;-85
2022/09/21 17:18:46;;;;;;;2.63;1.57;;;11.40;99.90;;;;;;5124892;28;20170;-85
2022/09/21 17:21:13;;;;;;;2.93;1.47;;;11.40;99.90;;;;;;5123167;28;20578;-85
2022/09/21 17:23:40;;;;;;;1.70;1.40;;;11.30;99.90;;;;;;5121894;28;20212;-84
2022/09/21 17:26:20;;;;;;;2.73;1.83;;;11.20;99.90;;;;;;5123357;28;20175;-84
2022/09/21 17:28:45;;;;;;;5.60;1.53;;;11.10;99.90;;;;;;5122518;28;20280;-85
2022/09/21 17:31:13;;;;;;;4.63;1.60;;;11.10;99.90;;;;;;5124944;28;20171;-85
2022/09/21 17:33:40;;;;;;;1.47;1.20;;;11.00;99.90;;;;;;5125174;28;20205;-86
2022/09/21 17:36:09;;;;;;;1.50;1.20;;;10.90;99.90;;;;;;5124938;28;20203;-82
2022/09/21 17:38:35;;;;;;;1.70;1.47;;;10.80;99.90;;;;;;5126112;28;20208;-83
2022/09/21 17:41:06;;;;;;;2.50;1.67;;;10.80;99.90;;;;;;5124900;28;20173;-84
2022/09/21 17:44:12;;;;;;;3.03;1.70;;;10.70;99.90;;;;;;5124097;27;20196;-84
2022/09/21 17:46:46;;;;;;;4.00;1.70;;;10.60;99.90;;;;;;5121332;28;20257;-86
2022/09/21 17:49:12;;;;;;;4.83;2.10;;;10.50;99.90;;;;;;5122280;28;20173;-85
2022/09/21 17:54:22;;;;;;;5.07;2.10;;;10.50;99.90;;;;;;5124194;28;20210;-85
2022/09/21 17:57:13;;;;;;;5.30;2.60;;;10.40;99.90;;;;;;5123229;28;20163;-85
2022/09/21 17:59:41;;;;;;;4.60;2.70;;;10.30;99.90;;;;;;5123556;28;20286;-84
2022/09/21 18:02:24;;;;;;;3.97;2.07;;;10.20;99.90;;;;;;5123666;28;20176;-85
2022/09/21 18:04:57;;;;;;;3.73;2.37;;;10.20;99.90;;;;;;5122696;28;20667;-84
2022/09/21 18:07:23;;;;;;;4.23;2.70;;;10.20;99.90;;;;;;5122338;28;20176;-83
2022/09/21 18:09:50;;;;;;;5.77;2.63;;;10.10;99.90;;;;;;5122164;28;20187;-84
2022/09/21 18:12:34;;;;;;;4.13;2.60;;;9.90;99.90;;;;;;5123690;28;20199;-85
2022/09/21 18:15:25;;;;;;;3.63;2.30;;;9.90;99.90;;;;;;5122554;28;20563;-85
2022/09/21 18:18:10;;;;;;;2.47;2.00;;;9.80;99.90;;;;;;5121829;28;20200;-86
2022/09/21 18:20:55;;;;;;;5.90;2.63;;;9.80;99.90;;;;;;5120320;28;20188;-86
2022/09/21 18:23:43;;;;;;;7.37;2.90;;;9.70;99.90;;;;;;5120601;28;20710;-85
2022/09/21 18:26:14;;;;;;;4.47;2.47;;;9.60;99.90;;;;;;5120825;28;20176;-84
2022/09/21 18:28:56;;;;;;;3.23;2.80;;;9.60;99.90;;;;;;5120517;28;20170;-84
2022/09/21 18:31:25;;;;;;;6.97;3.80;;;9.50;99.90;;;;;;5120674;28;20173;-86
2022/09/21 18:33:51;;;;;;;5.37;3.40;;;9.50;99.90;;;;;;5121753;28;20542;-86
2022/09/21 18:36:28;;;;;;;4.00;2.90;;;9.40;99.90;;;;;;5121433;28;20290;-86
2022/09/21 18:39:17;;;;;;;3.47;2.70;;;9.40;99.90;;;;;;5122225;28;20165;-84
2022/09/21 18:41:59;;;;;;;3.47;2.30;;;9.30;99.90;;;;;;5121673;28;20172;-84
2022/09/21 18:44:33;;;;;;;2.73;2.33;;;9.20;99.90;;;;;;5121328;28;20243;-85
2022/09/21 18:47:15;;;;;;;3.90;2.83;;;9.10;99.90;;;;;;5122067;28;20169;-86
2022/09/21 18:49:54;;;;;;;5.13;2.80;;;9.00;99.90;;;;;;5120539;28;20187;-82
2022/09/21 18:52:35;;;;;;;5.57;2.20;;;9.00;99.90;;;;;;5121250;28;20189;-84
2022/09/21 18:55:01;;;;;;;4.73;2.50;;;8.90;99.90;;;;;;5121444;28;20249;-85
2022/09/21 18:57:31;;;;;;;5.10;2.70;;;8.90;99.90;;;;;;5121948;28;20176;-85
2022/09/21 18:59:58;;;;;;;5.90;2.47;;;8.80;99.90;;;;;;5122815;28;20506;-86
2022/09/21 19:02:24;;;;;;;4.17;2.37;;;8.80;99.90;;;;;;5121974;28;20180;-85
2022/09/21 19:04:49;;;;;;;3.10;2.80;;;8.70;99.90;;;;;;5122460;28;20201;-87
2022/09/21 19:07:54;;;;;;;3.13;2.60;;;8.60;99.90;;;;;;5121395;28;20253;-84
2022/09/21 19:10:34;;;;;;;3.67;2.73;;;8.60;99.90;;;;;;5130502;28;20180;-83
2022/09/21 19:13:15;;;;;;;3.83;2.70;;;8.50;99.90;;;;;;5135417;28;20204;-85
2022/09/21 19:15:47;;;;;;;5.67;2.60;;;8.40;99.90;;;;;;5133229;28;20203;-86
2022/09/21 19:18:21;;;;;;;4.07;2.87;;;8.40;99.90;;;;;;5120556;28;20168;-86
2022/09/21 19:21:14;;;;;;;8.90;3.20;;;8.30;99.90;;;;;;5121596;28;20534;-85
2022/09/21 19:23:52;;;;;;;4.07;3.10;;;8.30;99.90;;;;;;5121622;28;20617;-85
2022/09/21 19:26:39;;;;;;;5.47;3.07;;;8.20;99.90;;;;;;5121608;28;20193;-87
2022/09/21 19:29:37;;;;;;;3.27;2.70;;;8.20;99.90;;;;;;5120020;28;20231;-86
2022/09/21 19:32:15;;;;;;;5.57;3.27;;;8.10;99.90;;;;;;5119658;28;20176;-86
2022/09/21 19:34:41;;;;;;;3.80;2.60;;;8.10;99.90;;;;;;5120510;28;20340;-86
2022/09/21 19:37:07;;;;;;;2.83;2.53;;;8.00;99.90;;;;;;5117868;28;20927;-85
2022/09/21 19:39:34;;;;;;;3.43;2.60;;;8.00;99.90;;;;;;5119128;28;20172;-86
2022/09/21 19:42:19;;;;;;;4.67;2.23;;;8.00;99.90;;;;;;5119072;28;20410;-85
2022/09/21 19:45:13;;;;;;;2.83;2.43;;;8.00;99.90;;;;;;5118525;28;20218;-86
2022/09/21 19:47:51;;;;;;;3.03;2.50;;;7.90;99.90;;;;;;5118298;28;20235;-86
2022/09/21 19:50:19;;;;;;;3.10;2.50;;;7.90;99.90;;;;;;5118873;28;20540;-85